»·PEaware :: SWA1428 KPHX-KSNA

SWA1428 :: KPHX-KSNA

FLIGHT INFORMATION

Flight Status: Arrived
Operator:
Southwest Airlines
More flights by this operator :: More flights under this callsign
Pilot: Ben L. (6391)
Aircraft: BOEING 737-800
(B738)
More flights by this aircraft type
Origin: KPHX Phoenix Sky Harbor Intl
United States
Destination: KSNA John Wayne-Orange Co
United States
More flights between these airports :: More routes between these airports
Route: +KEENS2 HRRBR EMLLD DSNEE4
File this flight plan on PilotEdge
Remarks:
Altitude:
(Current/Filed)
30,000ft
Speed:
(Current/Filed)
450kts
Departed: 01-Sep-19 06:34 PM
Arrived: 01-Sep-19 07:26 PM
Distance/Time
Traveled:
293nm/0:52
Distance/Time
To Go:
Arrived

Flight Plot

Page will automatically refresh every two minutes.

Flight plan parsing failed; only flown route is shown


Map Options




Map Legend


Flown Route
Filed Route
Departure Airport
Arrival Airport
Navaid (VOR, NDB)
Fix

Horizontal Profiles

Position Reports

Time Latitude Longitude Heading Altitude Ground
Speed
01-Sep-19 18:13 33.434050 -111.997321 77 1116ft 0kts
01-Sep-19 18:14 33.434050 -111.997321 77 1116ft 0kts
01-Sep-19 18:16 33.434050 -111.997321 77 1116ft 0kts
01-Sep-19 18:16 33.434050 -111.997321 77 1116ft 0kts
01-Sep-19 18:17 33.434050 -111.997321 77 1116ft 0kts
01-Sep-19 18:18 33.434050 -111.997321 77 1116ft 0kts
01-Sep-19 18:19 33.434050 -111.997321 77 1116ft 0kts
01-Sep-19 18:20 33.434050 -111.997321 77 1116ft 0kts
01-Sep-19 18:21 33.434050 -111.997321 77 1116ft 0kts
01-Sep-19 18:22 33.434050 -111.997321 77 1116ft 0kts
01-Sep-19 18:23 33.434050 -111.997322 77 1116ft 0kts
01-Sep-19 18:24 33.434050 -111.997322 77 1116ft 0kts
01-Sep-19 18:25 33.434050 -111.997322 77 1116ft 0kts
01-Sep-19 18:26 33.434054 -111.997292 82 1116ft 2kts
01-Sep-19 18:27 33.433370 -111.997701 222 1116ft 0kts
01-Sep-19 18:28 33.432833 -112.000109 266 1116ft 28kts
01-Sep-19 18:29 33.432888 -112.012298 269 1116ft 36kts
01-Sep-19 18:30 33.432840 -112.023732 265 1116ft 32kts
01-Sep-19 18:31 33.432179 -112.026985 180 1116ft 0kts
01-Sep-19 18:32 33.431758 -112.026975 179 1116ft 13kts
01-Sep-19 18:33 33.430879 -111.996839 87 1382ft 167kts
01-Sep-19 18:34 33.432941 -111.936946 84 2993ft 216kts
01-Sep-19 18:35 33.419995 -111.863492 132 5889ft 248kts
01-Sep-19 18:36 33.364817 -111.877233 256 8758ft 267kts
01-Sep-19 18:37 33.366158 -111.971933 279 10520ft 327kts
01-Sep-19 18:38 33.381538 -112.085337 279 13352ft 355kts
01-Sep-19 18:39 33.397649 -112.204955 279 16560ft 373kts
01-Sep-19 18:40 33.414428 -112.330496 279 19564ft 391kts
01-Sep-19 18:41 33.431922 -112.462455 279 22315ft 410kts
01-Sep-19 18:42 33.449787 -112.600839 275 24815ft 428kts
01-Sep-19 18:43 33.452062 -112.740416 270 27136ft 442kts
01-Sep-19 18:44 33.469123 -112.888751 282 29452ft 455kts
01-Sep-19 18:45 33.497842 -113.040788 282 29964ft 471kts
01-Sep-19 18:46 33.526219 -113.193708 282 29966ft 470kts
01-Sep-19 18:47 33.554355 -113.346397 282 29966ft 469kts
01-Sep-19 18:48 33.582431 -113.499878 282 29966ft 469kts
01-Sep-19 18:49 33.610147 -113.650050 281 29917ft 471kts
01-Sep-19 18:50 33.638556 -113.802957 281 29858ft 472kts
01-Sep-19 18:51 33.682864 -113.951350 294 29858ft 473kts
01-Sep-19 18:52 33.738586 -114.095253 294 29858ft 475kts
01-Sep-19 18:53 33.770184 -114.248714 277 29858ft 474kts
01-Sep-19 18:54 33.788533 -114.406652 277 29858ft 474kts
01-Sep-19 18:55 33.806722 -114.564033 277 29858ft 474kts
01-Sep-19 18:56 33.823705 -114.712623 277 29858ft 474kts
01-Sep-19 18:57 33.841603 -114.870988 277 29858ft 474kts
01-Sep-19 18:58 33.858884 -115.028242 276 29858ft 473kts
01-Sep-19 18:59 33.876223 -115.184695 276 29858ft 468kts
01-Sep-19 19:00 33.893243 -115.340156 276 29925ft 469kts
01-Sep-19 19:01 33.910130 -115.496226 276 29993ft 471kts
01-Sep-19 19:02 33.926576 -115.650062 275 29993ft 471kts
01-Sep-19 19:03 33.937401 -115.806770 273 29994ft 470kts
01-Sep-19 19:04 33.948486 -115.963618 273 29979ft 469kts
01-Sep-19 19:05 33.959300 -116.119667 273 29887ft 466kts
01-Sep-19 19:06 33.956120 -116.275473 260 29293ft 470kts
01-Sep-19 19:07 33.936815 -116.429231 261 26164ft 465kts
01-Sep-19 19:08 33.917388 -116.585019 260 22656ft 473kts
01-Sep-19 19:09 33.898471 -116.731000 260 19280ft 446kts
01-Sep-19 19:10 33.882233 -116.874619 262 16609ft 416kts
01-Sep-19 19:11 33.867395 -117.010001 261 13696ft 384kts
01-Sep-19 19:12 33.864135 -117.132396 289 10645ft 381kts
01-Sep-19 19:13 33.872644 -117.249020 252 8900ft 332kts
01-Sep-19 19:14 33.846534 -117.344796 250 8247ft 262kts
01-Sep-19 19:15 33.823996 -117.426242 252 7977ft 263kts
01-Sep-19 19:16 33.798819 -117.508558 250 7386ft 259kts
01-Sep-19 19:17 33.798348 -117.593024 295 6810ft 244kts
01-Sep-19 19:18 33.829502 -117.657258 301 6282ft 225kts
01-Sep-19 19:19 33.861387 -117.715534 295 5214ft 188kts
01-Sep-19 19:20 33.842044 -117.761754 207 4141ft 184kts
01-Sep-19 19:21 33.796838 -117.791569 210 3007ft 182kts
01-Sep-19 19:22 33.755037 -117.819584 206 1929ft 165kts
01-Sep-19 19:23 33.715552 -117.843488 208 812ft 147kts
01-Sep-19 19:24 33.679291 -117.866550 207 68ft 138kts
01-Sep-19 19:25 33.667634 -117.873098 130 63ft 2kts
01-Sep-19 19:26 33.667562 -117.872872 97 63ft 0kts
01-Sep-19 19:27 33.667558 -117.872838 99 63ft 0kts
01-Sep-19 19:28 33.671468 -117.868511 31 64ft 31kts
01-Sep-19 19:29 33.678924 -117.863382 41 63ft 12kts
01-Sep-19 19:30 33.679044 -117.862552 113 63ft 0kts

Navigation Log

Ident Type
Flight plan parsing failed, navigation log unavailable